createdAt,value
2017-05-29T00:02:00.109Z,14.90
2017-05-29T00:04:26.439Z,14.90
2017-05-29T00:06:54.570Z,14.80
2017-05-29T00:09:21.566Z,14.80
2017-05-29T00:11:48.575Z,14.80
2017-05-29T00:14:15.941Z,14.90
2017-05-29T00:16:42.942Z,15.00
2017-05-29T00:19:09.948Z,14.90
2017-05-29T00:21:37.246Z,14.90
2017-05-29T00:24:04.241Z,14.90
2017-05-29T00:26:31.235Z,14.80
2017-05-29T00:28:58.597Z,14.70
2017-05-29T00:31:25.597Z,14.70
2017-05-29T00:33:51.853Z,14.60
2017-05-29T00:36:20.013Z,14.60
2017-05-29T00:38:47.014Z,14.60
2017-05-29T00:41:14.031Z,14.50
2017-05-29T00:43:42.151Z,14.60
2017-05-29T00:46:09.154Z,14.60
2017-05-29T00:48:36.157Z,14.60
2017-05-29T00:51:04.399Z,14.70
2017-05-29T00:53:31.399Z,14.90
2017-05-29T00:55:57.662Z,14.80
2017-05-29T00:58:25.000Z,14.90
2017-05-29T01:00:52.005Z,14.90
2017-05-29T01:03:19.014Z,14.80
2017-05-29T01:05:47.371Z,14.70
2017-05-29T01:08:15.390Z,14.70
2017-05-29T01:10:42.386Z,14.70
2017-05-29T01:13:09.733Z,14.60
2017-05-29T01:15:36.729Z,14.60
2017-05-29T01:18:03.730Z,14.60
2017-05-29T01:20:31.088Z,14.70
2017-05-29T01:22:58.093Z,14.60
2017-05-29T01:25:25.093Z,14.40
2017-05-29T01:27:52.437Z,14.50
2017-05-29T01:30:19.465Z,14.60
2017-05-29T01:32:51.384Z,14.50
2017-05-29T01:35:18.807Z,14.50
2017-05-29T01:37:45.843Z,14.70
2017-05-29T01:40:12.863Z,14.60
2017-05-29T01:42:40.237Z,14.90
2017-05-29T01:45:07.261Z,14.70
2017-05-29T01:47:34.298Z,14.60
2017-05-29T01:50:02.534Z,14.40
2017-05-29T01:52:29.558Z,14.30
2017-05-29T01:54:56.581Z,14.10
2017-05-29T01:57:23.953Z,14.20
2017-05-29T01:59:50.946Z,14.10
2017-05-29T02:02:17.950Z,14.40
2017-05-29T02:04:45.297Z,14.50
2017-05-29T02:07:12.289Z,14.50
2017-05-29T02:09:39.298Z,14.50
2017-05-29T02:12:06.649Z,14.50
2017-05-29T02:14:33.685Z,14.50
2017-05-29T02:17:00.690Z,14.50
2017-05-29T02:19:27.990Z,14.30
2017-05-29T02:21:54.989Z,14.30
2017-05-29T02:24:21.987Z,14.40
2017-05-29T02:26:49.339Z,14.30
2017-05-29T02:29:16.354Z,14.20
2017-05-29T02:31:43.341Z,14.20
2017-05-29T02:34:11.542Z,14.10
2017-05-29T02:36:38.557Z,14.20
2017-05-29T02:39:05.561Z,14.20
2017-05-29T02:41:33.641Z,14.30
2017-05-29T02:44:00.646Z,14.30
2017-05-29T02:46:28.705Z,14.10
2017-05-29T02:48:56.037Z,14.20
2017-05-29T02:51:23.038Z,14.10
2017-05-29T02:53:50.051Z,14.10
2017-05-29T02:56:18.116Z,14.10
2017-05-29T02:58:45.110Z,14.00
2017-05-29T03:01:11.370Z,14.00
2017-05-29T03:03:39.671Z,13.80
2017-05-29T03:06:06.686Z,13.80
2017-05-29T03:08:33.694Z,13.60
2017-05-29T03:11:01.014Z,13.60
2017-05-29T03:13:28.006Z,13.60
2017-05-29T03:15:54.999Z,13.60
2017-05-29T03:18:22.337Z,13.60
2017-05-29T03:20:49.345Z,13.60
2017-05-29T03:23:16.371Z,13.50
2017-05-29T03:25:43.887Z,13.60
2017-05-29T03:28:10.877Z,13.50
2017-05-29T03:30:37.878Z,13.60
2017-05-29T03:33:06.050Z,13.50
2017-05-29T03:35:33.075Z,13.50
2017-05-29T03:38:00.085Z,13.50
2017-05-29T03:40:27.390Z,13.60
2017-05-29T03:42:54.385Z,13.60
2017-05-29T03:45:21.378Z,13.50
2017-05-29T03:47:49.634Z,13.50
2017-05-29T03:50:16.633Z,13.50
2017-05-29T03:52:43.633Z,13.40
2017-05-29T03:55:11.853Z,13.50
2017-05-29T03:57:38.858Z,13.50
2017-05-29T04:00:05.883Z,13.50
2017-05-29T04:02:33.906Z,13.50
2017-05-29T04:05:00.907Z,13.60
2017-05-29T04:07:28.822Z,13.60
2017-05-29T04:09:56.881Z,13.70
2017-05-29T04:12:23.889Z,13.80
2017-05-29T04:14:50.886Z,13.80
2017-05-29T04:17:19.035Z,13.80
2017-05-29T04:19:46.029Z,13.90
2017-05-29T04:22:13.035Z,14.00
2017-05-29T04:24:40.386Z,14.10
2017-05-29T04:27:07.397Z,14.20
2017-05-29T04:29:34.397Z,14.20
2017-05-29T04:32:01.729Z,14.30
2017-05-29T04:34:29.746Z,14.30
2017-05-29T04:36:56.749Z,14.30
2017-05-29T04:39:24.105Z,14.40
2017-05-29T04:41:51.097Z,14.50
2017-05-29T04:44:17.374Z,14.50
2017-05-29T04:46:44.726Z,14.60
2017-05-29T04:49:11.727Z,14.70
2017-05-29T04:51:38.725Z,14.80
2017-05-29T04:54:07.094Z,14.80
2017-05-29T04:56:34.104Z,14.80
2017-05-29T04:59:01.378Z,14.80
2017-05-29T05:01:28.752Z,14.80
2017-05-29T05:03:55.761Z,14.90
2017-05-29T05:06:22.029Z,14.90
2017-05-29T05:08:49.378Z,15.20
2017-05-29T05:11:16.386Z,15.30
2017-05-29T05:13:43.394Z,15.40
2017-05-29T05:16:10.721Z,15.60
2017-05-29T05:18:37.722Z,15.60
2017-05-29T05:21:04.722Z,15.80
2017-05-29T05:23:32.825Z,15.90
2017-05-29T05:25:59.868Z,16.10
2017-05-29T05:28:26.875Z,16.30
2017-05-29T05:30:55.173Z,16.50
2017-05-29T05:33:22.171Z,16.60
2017-05-29T05:35:49.322Z,16.80
2017-05-29T05:38:16.658Z,16.90
2017-05-29T05:40:43.684Z,17.10
2017-05-29T05:43:10.693Z,17.30
2017-05-29T05:45:38.059Z,17.60
2017-05-29T05:48:05.068Z,17.80
2017-05-29T05:50:32.083Z,18.00
2017-05-29T05:52:59.443Z,18.20
2017-05-29T05:55:26.438Z,18.30
2017-05-29T05:57:53.438Z,18.40
2017-05-29T06:00:21.583Z,18.60
2017-05-29T06:02:48.569Z,18.80
2017-05-29T06:05:15.584Z,19.00
2017-05-29T06:07:42.905Z,19.20
2017-05-29T06:10:09.905Z,19.30
2017-05-29T06:12:36.904Z,19.40
2017-05-29T06:15:04.246Z,19.60
2017-05-29T06:17:32.245Z,19.70
2017-05-29T06:19:59.246Z,19.90
2017-05-29T06:22:27.466Z,20.10
2017-05-29T06:24:54.463Z,20.20
2017-05-29T06:27:21.461Z,20.40
2017-05-29T06:29:49.621Z,20.50
2017-05-29T06:32:16.634Z,20.70
2017-05-29T06:34:43.626Z,21.00
2017-05-29T06:37:11.699Z,21.10
2017-05-29T06:39:38.702Z,21.20
2017-05-29T06:42:05.701Z,21.40
2017-05-29T06:44:33.009Z,21.50
2017-05-29T06:47:00.005Z,21.50
2017-05-29T06:49:27.025Z,21.60
2017-05-29T06:51:54.362Z,21.70
2017-05-29T06:54:21.361Z,21.90
2017-05-29T06:56:48.370Z,21.90
2017-05-29T06:59:15.713Z,21.90
2017-05-29T07:01:42.722Z,22.10
2017-05-29T07:04:09.719Z,22.20
2017-05-29T07:06:37.869Z,22.40
2017-05-29T07:09:04.863Z,22.50
2017-05-29T07:11:31.869Z,22.70
2017-05-29T07:13:59.905Z,22.90
2017-05-29T07:16:26.910Z,23.00
2017-05-29T07:18:53.927Z,23.10
2017-05-29T07:21:21.266Z,23.30
2017-05-29T07:23:48.278Z,23.40
2017-05-29T07:26:15.277Z,23.60
2017-05-29T07:28:43.577Z,23.80
2017-05-29T07:31:10.580Z,23.90
2017-05-29T07:33:37.578Z,24.00
2017-05-29T07:36:04.891Z,24.10
2017-05-29T07:38:31.886Z,24.20
2017-05-29T07:40:58.146Z,24.20
2017-05-29T07:43:25.514Z,24.40
2017-05-29T07:45:52.521Z,24.60
2017-05-29T07:48:19.535Z,24.80
2017-05-29T07:50:46.857Z,24.80
2017-05-29T07:53:13.869Z,25.00
2017-05-29T07:55:40.865Z,25.10
2017-05-29T07:58:08.207Z,25.20
2017-05-29T08:00:35.201Z,25.30
2017-05-29T08:03:02.196Z,25.60
2017-05-29T08:05:29.549Z,25.70
2017-05-29T08:07:56.548Z,25.50
2017-05-29T08:10:22.805Z,25.50
2017-05-29T08:12:50.178Z,25.30
2017-05-29T08:15:17.173Z,25.60
2017-05-29T08:17:45.189Z,25.60
2017-05-29T08:20:13.375Z,25.90
2017-05-29T08:22:40.370Z,26.10
2017-05-29T08:25:07.369Z,26.20
2017-05-29T08:27:34.717Z,26.30
2017-05-29T08:30:01.730Z,26.30
2017-05-29T08:32:28.746Z,26.20
2017-05-29T08:34:56.063Z,26.00
2017-05-29T08:37:23.067Z,26.00
2017-05-29T08:39:50.061Z,26.00
2017-05-29T08:42:17.381Z,25.90
2017-05-29T08:44:44.380Z,26.10
2017-05-29T08:47:11.374Z,26.20
2017-05-29T08:49:38.882Z,26.20
2017-05-29T08:52:05.882Z,26.40
2017-05-29T08:54:32.879Z,26.80
2017-05-29T08:57:01.166Z,27.20
2017-05-29T08:59:28.166Z,27.50
2017-05-29T09:01:55.180Z,27.40
2017-05-29T09:04:22.500Z,27.40
2017-05-29T09:06:50.263Z,27.40
2017-05-29T09:09:18.348Z,27.00
2017-05-29T09:11:46.602Z,27.00
2017-05-29T09:14:13.610Z,27.40
2017-05-29T09:16:40.614Z,27.10
2017-05-29T09:19:07.918Z,27.30
2017-05-29T09:21:34.918Z,27.60
2017-05-29T09:24:01.922Z,27.80
2017-05-29T09:26:30.106Z,28.00
2017-05-29T09:28:57.110Z,27.60
2017-05-29T09:31:24.131Z,27.50
2017-05-29T09:33:52.254Z,27.00
2017-05-29T09:36:19.263Z,26.80
2017-05-29T09:38:46.258Z,27.20
2017-05-29T09:41:13.597Z,27.00
2017-05-29T09:43:40.626Z,27.20
2017-05-29T09:46:07.625Z,27.70
2017-05-29T09:48:35.963Z,28.00
2017-05-29T09:51:02.966Z,28.30
2017-05-29T09:53:29.961Z,28.50
2017-05-29T09:55:57.302Z,28.40
2017-05-29T09:58:24.304Z,27.80
2017-05-29T10:00:51.306Z,27.80
2017-05-29T10:03:19.341Z,28.30
2017-05-29T10:05:46.342Z,28.70
2017-05-29T10:08:13.346Z,28.00
2017-05-29T10:10:41.493Z,28.30
2017-05-29T10:13:07.754Z,28.30
2017-05-29T10:15:34.752Z,28.50
2017-05-29T10:18:02.083Z,28.00
2017-05-29T10:20:29.078Z,27.80
2017-05-29T10:22:56.092Z,28.50
2017-05-29T10:25:23.401Z,29.00
2017-05-29T10:27:50.404Z,29.00
2017-05-29T10:30:17.406Z,28.50
2017-05-29T10:32:44.749Z,28.60
2017-05-29T10:35:11.748Z,29.10
2017-05-29T10:37:38.745Z,29.40
2017-05-29T10:40:07.037Z,29.60
2017-05-29T10:42:34.037Z,29.90
2017-05-29T10:45:01.033Z,29.90
2017-05-29T10:47:29.056Z,29.80
2017-05-29T10:49:56.057Z,29.60
2017-05-29T10:52:23.074Z,29.80
2017-05-29T10:54:51.165Z,29.80
2017-05-29T10:57:18.162Z,30.00
2017-05-29T10:59:45.161Z,29.80
2017-05-29T11:02:13.209Z,29.90
2017-05-29T11:04:40.225Z,30.10
2017-05-29T11:07:07.225Z,30.20
2017-05-29T11:09:34.557Z,30.00
2017-05-29T11:12:01.557Z,29.80
2017-05-29T11:14:28.574Z,30.10
2017-05-29T11:16:56.697Z,30.20
2017-05-29T11:19:23.683Z,30.00
2017-05-29T11:21:50.693Z,30.00
2017-05-29T11:24:18.063Z,30.10
2017-05-29T11:26:45.065Z,29.90
2017-05-29T11:29:12.076Z,30.30
2017-05-29T11:31:39.410Z,30.20
2017-05-29T11:34:06.410Z,30.00
2017-05-29T11:36:33.417Z,30.00
2017-05-29T11:39:00.749Z,29.90
2017-05-29T11:41:27.750Z,29.60
2017-05-29T11:43:54.748Z,29.90
2017-05-29T11:46:23.035Z,30.20
2017-05-29T11:48:50.029Z,30.40
2017-05-29T11:51:17.025Z,30.30
2017-05-29T11:53:44.310Z,30.40
2017-05-29T11:56:11.318Z,30.50
2017-05-29T11:58:38.326Z,30.00
2017-05-29T12:01:05.710Z,30.50
2017-05-29T12:03:32.702Z,29.90
2017-05-29T12:05:59.707Z,29.70
2017-05-29T12:08:26.986Z,30.00
2017-05-29T12:10:53.997Z,30.00
2017-05-29T12:13:20.997Z,30.50
2017-05-29T12:15:49.141Z,29.80
2017-05-29T12:18:16.150Z,29.70
2017-05-29T12:20:43.146Z,30.20
2017-05-29T12:23:10.457Z,30.20
2017-05-29T12:25:37.462Z,31.60
2017-05-29T12:28:04.470Z,33.10
2017-05-29T12:30:31.805Z,34.00
2017-05-29T12:32:58.806Z,35.00
2017-05-29T12:35:25.815Z,35.60
2017-05-29T12:37:54.190Z,36.00
2017-05-29T12:40:21.194Z,36.50
2017-05-29T12:42:48.272Z,36.10
2017-05-29T12:45:15.628Z,37.20
2017-05-29T12:47:43.669Z,38.20
2017-05-29T12:50:10.743Z,37.90
2017-05-29T12:52:38.089Z,37.40
2017-05-29T12:55:05.110Z,37.20
2017-05-29T12:57:32.110Z,37.00
2017-05-29T13:00:00.265Z,38.10
2017-05-29T13:02:27.269Z,39.80
2017-05-29T13:04:54.277Z,39.00
2017-05-29T13:07:22.329Z,39.60
2017-05-29T13:09:48.589Z,39.50
2017-05-29T13:12:15.608Z,39.70
2017-05-29T13:14:42.949Z,40.10
2017-05-29T13:17:09.945Z,41.10
2017-05-29T13:19:36.941Z,41.10
2017-05-29T13:22:04.297Z,41.10
2017-05-29T13:24:31.293Z,40.40
2017-05-29T13:26:58.295Z,39.40
2017-05-29T13:29:25.642Z,39.20
2017-05-29T13:31:52.643Z,37.50
2017-05-29T13:34:19.653Z,40.50
2017-05-29T13:36:47.718Z,41.50
2017-05-29T13:39:14.729Z,41.40
2017-05-29T13:41:41.717Z,41.80
2017-05-29T13:44:09.051Z,41.40
2017-05-29T13:46:36.046Z,43.10
2017-05-29T13:49:03.045Z,42.40
2017-05-29T13:51:30.394Z,42.10
2017-05-29T13:53:57.398Z,43.00
2017-05-29T13:56:24.401Z,43.80
2017-05-29T13:58:51.738Z,42.80
2017-05-29T14:01:18.755Z,43.70
2017-05-29T14:03:45.764Z,44.60
2017-05-29T14:06:13.081Z,44.40
2017-05-29T14:08:40.087Z,42.80
2017-05-29T14:11:07.087Z,41.20
2017-05-29T14:13:35.313Z,43.20
2017-05-29T14:16:02.326Z,43.90
2017-05-29T14:18:29.364Z,43.80
2017-05-29T14:20:57.546Z,43.90
2017-05-29T14:23:24.569Z,43.30
2017-05-29T14:25:52.593Z,42.80
2017-05-29T14:28:19.980Z,44.20
2017-05-29T14:30:46.978Z,43.90
2017-05-29T14:33:13.973Z,43.70
2017-05-29T14:35:41.333Z,43.80
2017-05-29T14:38:08.342Z,44.60
2017-05-29T14:40:35.349Z,44.20
2017-05-29T14:43:02.686Z,44.20
2017-05-29T14:45:29.695Z,42.30
2017-05-29T14:47:56.705Z,41.60
2017-05-29T14:50:24.030Z,42.30
2017-05-29T14:52:51.034Z,41.50
2017-05-29T14:55:18.032Z,41.80
2017-05-29T14:57:45.377Z,42.80
2017-05-29T15:00:12.434Z,43.20
2017-05-29T15:02:39.430Z,42.70
2017-05-29T15:05:06.825Z,43.50
2017-05-29T15:07:33.824Z,43.90
2017-05-29T15:10:00.833Z,43.50
2017-05-29T15:12:28.961Z,44.60
2017-05-29T15:14:55.978Z,42.30
2017-05-29T15:17:22.974Z,43.60
2017-05-29T15:19:51.119Z,44.50
2017-05-29T15:22:18.107Z,44.60
2017-05-29T15:24:45.150Z,45.00
2017-05-29T15:27:12.493Z,44.90
2017-05-29T15:29:39.544Z,42.10
2017-05-29T15:32:06.537Z,43.20
2017-05-29T15:34:33.937Z,44.60
2017-05-29T15:37:00.943Z,44.30
2017-05-29T15:39:27.949Z,43.70
2017-05-29T15:41:55.285Z,43.50
2017-05-29T15:44:23.402Z,42.50
2017-05-29T15:46:51.100Z,42.50
2017-05-29T15:49:18.476Z,43.30
2017-05-29T15:51:45.478Z,40.60
2017-05-29T15:54:11.973Z,40.50
2017-05-29T15:56:39.370Z,43.00
2017-05-29T15:59:06.383Z,42.40
2017-05-29T16:01:33.394Z,41.70
2017-05-29T16:04:00.780Z,40.50
2017-05-29T16:06:27.785Z,41.30
2017-05-29T16:08:54.917Z,42.70
2017-05-29T16:11:22.305Z,42.80
2017-05-29T16:13:49.305Z,41.30
2017-05-29T16:16:16.346Z,41.80
2017-05-29T16:18:44.479Z,41.40
2017-05-29T16:21:11.509Z,41.40
2017-05-29T16:23:37.765Z,41.30
2017-05-29T16:26:05.098Z,41.20
2017-05-29T16:28:32.099Z,41.40
2017-05-29T16:30:59.098Z,39.50
2017-05-29T16:33:26.446Z,40.50
2017-05-29T16:35:52.711Z,40.50
2017-05-29T16:38:19.715Z,40.30
2017-05-29T16:40:47.008Z,40.30
2017-05-29T16:43:14.023Z,39.80
2017-05-29T16:45:41.033Z,39.70
2017-05-29T16:48:08.422Z,39.60
2017-05-29T16:50:35.425Z,38.80
2017-05-29T16:53:02.544Z,39.30
2017-05-29T16:55:30.559Z,38.30
2017-05-29T16:57:57.589Z,38.10
2017-05-29T17:00:24.613Z,38.60
2017-05-29T17:02:51.926Z,38.00
2017-05-29T17:05:18.925Z,36.40
2017-05-29T17:07:45.921Z,33.70
2017-05-29T17:10:13.196Z,32.00
2017-05-29T17:12:40.189Z,31.10
2017-05-29T17:15:07.210Z,30.50
2017-05-29T17:17:34.522Z,30.00
2017-05-29T17:20:00.813Z,29.90
2017-05-29T17:22:27.834Z,29.10
2017-05-29T17:24:55.158Z,28.60
2017-05-29T17:27:22.164Z,28.30
2017-05-29T17:29:49.181Z,28.50
2017-05-29T17:32:17.266Z,27.90
2017-05-29T17:34:43.522Z,27.80
2017-05-29T17:37:10.550Z,27.20
2017-05-29T17:39:37.977Z,27.10
2017-05-29T17:42:05.023Z,27.10
2017-05-29T17:44:32.106Z,26.60
2017-05-29T17:47:00.339Z,26.20
2017-05-29T17:49:27.359Z,26.30
2017-05-29T17:51:53.667Z,26.30
2017-05-29T17:54:20.958Z,25.90
2017-05-29T17:56:47.971Z,25.60
2017-05-29T17:59:15.015Z,25.40
2017-05-29T18:01:43.251Z,25.00
2017-05-29T18:04:10.260Z,24.80
2017-05-29T18:06:37.254Z,24.60
2017-05-29T18:09:05.490Z,24.50
2017-05-29T18:11:32.489Z,24.30
2017-05-29T18:13:59.520Z,24.10
2017-05-29T18:16:27.865Z,24.00
2017-05-29T18:18:54.887Z,23.90
2017-05-29T18:21:21.906Z,23.90
2017-05-29T18:23:49.229Z,23.70
2017-05-29T18:26:16.026Z,23.60
2017-05-29T18:28:43.224Z,23.40
2017-05-29T18:31:10.568Z,23.20
2017-05-29T18:33:37.570Z,23.10
2017-05-29T18:36:04.587Z,23.00
2017-05-29T18:38:32.681Z,22.80
2017-05-29T18:40:59.694Z,22.80
2017-05-29T18:43:26.693Z,22.40
2017-05-29T18:45:55.020Z,21.90
2017-05-29T18:48:22.043Z,21.50
2017-05-29T18:50:49.050Z,21.20
2017-05-29T18:53:16.413Z,21.10
2017-05-29T18:55:42.682Z,21.10
2017-05-29T18:58:09.689Z,20.80
2017-05-29T19:00:37.038Z,20.70
2017-05-29T19:03:04.046Z,20.80
2017-05-29T19:05:31.053Z,20.60
2017-05-29T19:07:59.213Z,20.40
2017-05-29T19:10:26.249Z,20.40
2017-05-29T19:12:53.261Z,20.30
2017-05-29T19:15:21.405Z,20.20
2017-05-29T19:17:48.421Z,20.00
2017-05-29T19:20:15.431Z,19.90
2017-05-29T19:22:42.821Z,19.70
2017-05-29T19:25:09.869Z,19.70
2017-05-29T19:27:36.878Z,19.60
2017-05-29T19:30:03.554Z,19.50
2017-05-29T19:32:30.562Z,19.50
2017-05-29T19:34:57.558Z,19.40
2017-05-29T19:37:24.842Z,19.40
2017-05-29T19:39:51.845Z,19.30
2017-05-29T19:42:19.271Z,19.20
2017-05-29T19:44:45.929Z,19.10
2017-05-29T19:47:12.923Z,19.00
2017-05-29T19:49:39.946Z,19.00
2017-05-29T19:52:07.293Z,18.90
2017-05-29T19:54:34.310Z,19.00
2017-05-29T19:57:01.367Z,19.00
2017-05-29T19:59:28.005Z,19.00
2017-05-29T20:01:55.041Z,18.90
2017-05-29T20:04:22.099Z,18.90
2017-05-29T20:06:49.457Z,18.80
2017-05-29T20:09:16.478Z,18.80
2017-05-29T20:11:44.509Z,18.80
2017-05-29T20:14:12.653Z,18.70
2017-05-29T20:16:39.674Z,18.60
2017-05-29T20:19:06.710Z,18.50
2017-05-29T20:21:34.090Z,18.50
2017-05-29T20:24:01.121Z,18.60
2017-05-29T20:26:28.133Z,18.50
2017-05-29T20:28:55.449Z,18.60
2017-05-29T20:31:22.445Z,18.60
2017-05-29T20:33:49.451Z,18.50
2017-05-29T20:36:16.915Z,18.50
2017-05-29T20:38:44.055Z,18.40
2017-05-29T20:41:11.091Z,18.50
2017-05-29T20:43:39.138Z,18.60
2017-05-29T20:46:06.167Z,18.50
2017-05-29T20:48:32.438Z,18.50
2017-05-29T20:50:59.754Z,18.60
2017-05-29T20:53:27.785Z,18.60
2017-05-29T20:55:54.796Z,18.50
2017-05-29T20:58:22.093Z,18.50
2017-05-29T21:00:49.114Z,18.40
2017-05-29T21:03:16.166Z,18.40
2017-05-29T21:05:43.803Z,18.40
2017-05-29T21:08:10.852Z,18.50
2017-05-29T21:10:37.883Z,18.60
2017-05-29T21:13:05.256Z,18.50
2017-05-29T21:15:32.306Z,18.50
2017-05-29T21:17:59.457Z,18.50
2017-05-29T21:20:26.805Z,18.60
2017-05-29T21:22:53.830Z,18.70
2017-05-29T21:25:20.832Z,18.60
2017-05-29T21:27:48.145Z,18.60
2017-05-29T21:30:15.162Z,18.60
2017-05-29T21:32:42.161Z,18.50
2017-05-29T21:35:09.482Z,18.50
2017-05-29T21:37:36.484Z,18.70
2017-05-29T21:40:03.481Z,18.70
2017-05-29T21:42:31.521Z,18.70
2017-05-29T21:44:58.534Z,18.70
2017-05-29T21:47:25.537Z,18.80
2017-05-29T21:49:52.911Z,18.70
2017-05-29T21:52:20.027Z,18.70
2017-05-29T21:54:47.028Z,18.60
2017-05-29T21:57:14.345Z,18.60
2017-05-29T21:59:41.363Z,18.60
2017-05-29T22:02:08.371Z,18.60
2017-05-29T22:04:35.789Z,18.70
2017-05-29T22:07:02.844Z,18.70
2017-05-29T22:09:29.834Z,18.70
2017-05-29T22:11:57.151Z,18.70
2017-05-29T22:14:24.173Z,18.70
2017-05-29T22:16:51.203Z,18.70
2017-05-29T22:19:17.789Z,18.70
2017-05-29T22:21:44.790Z,18.60
2017-05-29T22:24:11.799Z,18.60
2017-05-29T22:26:39.970Z,18.60
2017-05-29T22:29:06.997Z,18.60
2017-05-29T22:31:34.018Z,18.60
2017-05-29T22:34:02.317Z,18.70
2017-05-29T22:36:29.314Z,18.60
2017-05-29T22:38:55.574Z,18.60
2017-05-29T22:41:22.948Z,18.70
2017-05-29T22:43:49.941Z,18.90
2017-05-29T22:46:16.942Z,18.70
2017-05-29T22:48:44.278Z,18.70
2017-05-29T22:51:11.277Z,18.70
2017-05-29T22:53:38.271Z,18.70
2017-05-29T22:56:05.625Z,18.60
2017-05-29T22:58:31.887Z,18.50
2017-05-29T23:00:58.882Z,18.50
2017-05-29T23:03:26.245Z,18.50
2017-05-29T23:05:53.275Z,18.40
2017-05-29T23:08:20.295Z,18.40
2017-05-29T23:10:47.578Z,18.30
2017-05-29T23:13:14.590Z,18.30
2017-05-29T23:15:41.593Z,18.40
2017-05-29T23:18:08.921Z,18.30
2017-05-29T23:20:35.925Z,18.30
2017-05-29T23:23:02.929Z,18.30
2017-05-29T23:25:30.977Z,18.30
2017-05-29T23:27:57.982Z,18.40
2017-05-29T23:30:24.983Z,18.30
2017-05-29T23:32:53.206Z,18.20
2017-05-29T23:35:20.206Z,18.10
2017-05-29T23:37:47.242Z,18.10
2017-05-29T23:40:15.253Z,18.10
2017-05-29T23:42:42.250Z,18.10
2017-05-29T23:45:09.266Z,18.00
2017-05-29T23:47:37.453Z,18.00
2017-05-29T23:50:04.453Z,18.00
2017-05-29T23:52:30.709Z,17.90
2017-05-29T23:54:58.776Z,18.00
2017-05-29T23:57:25.781Z,18.00
2017-05-29T23:59:53.793Z,18.00
